Time;durP1;ratioP1;P1;durP2;ratioP2;P2;SDS_P1;SDS_P2;PMS_P1;PMS_P2;Temp;Humidity;BMP_temperature;BMP_pressure;BME280_temperature;BME280_humidity;BME280_pressure;Samples;Min_cycle;Max_cycle;Signal;HPM_P1;HPM_P2
2021/03/12 00:01:16;;;;;;;;;;;13.90;62.00;;;;;;2082092;28;827;-47
2021/03/12 00:02:36;;;;;;;;;;;13.90;62.10;;;;;;2083771;28;896;-47
2021/03/12 00:03:55;;;;;;;;;;;13.80;62.00;;;;;;2094695;28;1003;-47
2021/03/12 00:05:14;;;;;;;;;;;13.80;62.10;;;;;;2089499;28;956;-46
2021/03/12 00:06:33;;;;;;;;;;;13.80;62.00;;;;;;2090017;28;1372;-47
2021/03/12 00:07:53;;;;;;;;;;;13.80;62.00;;;;;;2089486;28;771;-47
2021/03/12 00:09:12;;;;;;;;;;;13.80;62.00;;;;;;2080899;28;1970;-47
2021/03/12 00:10:31;;;;;;;;;;;13.80;62.80;;;;;;2086458;28;726;-46
2021/03/12 00:11:52;;;;;;;;;;;13.80;62.80;;;;;;2089989;28;702;-47
2021/03/12 00:13:11;;;;;;;;;;;13.80;62.70;;;;;;2090380;28;721;-47
2021/03/12 00:14:31;;;;;;;;;;;13.80;62.00;;;;;;2089361;28;762;-47
2021/03/12 00:15:50;;;;;;;;;;;13.80;62.00;;;;;;2089285;28;1321;-48
2021/03/12 00:17:09;;;;;;;;;;;13.80;62.10;;;;;;2089569;28;713;-47
2021/03/12 00:18:38;;;;;;;;;;;13.80;62.10;;;;;;2089828;28;751;-47
2021/03/12 00:19:58;;;;;;;;;;;13.80;62.00;;;;;;2089041;28;748;-47
2021/03/12 00:21:17;;;;;;;;;;;13.80;62.00;;;;;;2086483;28;725;-47
2021/03/12 00:22:38;;;;;;;;;;;13.80;62.10;;;;;;2089110;28;1054;-47
2021/03/12 00:23:57;;;;;;;;;;;13.80;62.10;;;;;;2086083;28;812;-44
2021/03/12 00:25:17;;;;;;;;;;;13.80;62.10;;;;;;2088760;28;728;-46
2021/03/12 00:26:36;;;;;;;;;;;13.80;62.10;;;;;;2089685;28;1377;-47
2021/03/12 00:27:55;;;;;;;;;;;13.80;62.10;;;;;;2089913;28;725;-47
2021/03/12 00:29:15;;;;;;;;;;;13.80;62.20;;;;;;2089870;28;1914;-44
2021/03/12 00:30:34;;;;;;;;;;;13.80;62.20;;;;;;2089042;28;736;-47
2021/03/12 00:31:53;;;;;;;;;;;13.80;62.10;;;;;;2081046;28;979;-47
2021/03/12 00:33:12;;;;;;;;;;;13.80;62.90;;;;;;2085211;28;1191;-47
2021/03/12 00:34:32;;;;;;;;;;;13.70;62.00;;;;;;2077837;28;770;-45
2021/03/12 00:35:51;;;;;;;;;;;13.80;62.10;;;;;;2077549;28;1451;-48
2021/03/12 00:37:10;;;;;;;;;;;13.70;62.00;;;;;;2069285;28;792;-47
2021/03/12 00:38:29;;;;;;;;;;;13.70;61.90;;;;;;2078211;28;741;-45
2021/03/12 00:39:49;;;;;;;;;;;13.70;62.00;;;;;;2081049;28;761;-47
2021/03/12 00:41:08;;;;;;;;;;;13.70;62.00;;;;;;2077872;28;747;-47
2021/03/12 00:42:41;;;;;;;;;;;13.70;62.00;;;;;;2072552;28;793;-46
2021/03/12 00:44:00;;;;;;;;;;;13.70;62.00;;;;;;2076511;28;769;-47
2021/03/12 00:45:28;;;;;;;;;;;13.70;62.00;;;;;;2079489;28;1274;-46
2021/03/12 00:46:52;;;;;;;;;;;13.70;62.10;;;;;;2084426;28;893;-47
2021/03/12 00:48:12;;;;;;;;;;;13.70;62.10;;;;;;2077696;28;758;-47
2021/03/12 00:49:32;;;;;;;;;;;13.70;62.10;;;;;;2086338;28;1954;-46
2021/03/12 00:50:53;;;;;;;;;;;13.70;62.10;;;;;;2089040;28;740;-47
2021/03/12 00:52:20;;;;;;;;;;;13.70;62.80;;;;;;2088983;28;726;-46
2021/03/12 00:53:39;;;;;;;;;;;13.70;62.10;;;;;;2085972;28;831;-47
2021/03/12 00:55:00;;;;;;;;;;;13.60;62.00;;;;;;2085415;28;725;-47
2021/03/12 00:56:34;;;;;;;;;;;13.70;62.10;;;;;;2079874;28;1452;-46
2021/03/12 00:57:56;;;;;;;;;;;13.60;62.10;;;;;;2088371;28;727;-47
2021/03/12 00:59:17;;;;;;;;;;;13.60;62.00;;;;;;2085974;28;741;-46
2021/03/12 01:00:43;;;;;;;;;;;13.60;62.00;;;;;;2086794;28;729;-47
2021/03/12 01:02:05;;;;;;;;;;;13.60;62.00;;;;;;2091292;28;971;-47
2021/03/12 01:03:24;;;;;;;;;;;13.60;62.70;;;;;;2086897;28;1062;-47
2021/03/12 01:04:51;;;;;;;;;;;13.60;62.80;;;;;;2080545;28;694;-47
2021/03/12 01:06:10;;;;;;;;;;;13.60;62.00;;;;;;2080859;28;1356;-47
2021/03/12 01:07:40;;;;;;;;;;;13.60;62.00;;;;;;2080570;28;765;-47
2021/03/12 01:09:00;;;;;;;;;;;13.60;62.00;;;;;;2079359;28;1903;-47
2021/03/12 01:10:24;;;;;;;;;;;13.60;62.10;;;;;;2078241;28;732;-47
2021/03/12 01:11:43;;;;;;;;;;;13.60;62.10;;;;;;2077621;28;725;-47
2021/03/12 01:13:05;;;;;;;;;;;13.60;62.20;;;;;;2078093;28;723;-47
2021/03/12 01:14:24;;;;;;;;;;;13.60;62.20;;;;;;2072735;28;721;-46
2021/03/12 01:15:44;;;;;;;;;;;13.60;62.20;;;;;;2077039;28;1440;-46
2021/03/12 01:17:15;;;;;;;;;;;13.60;62.10;;;;;;2079035;28;739;-46
2021/03/12 01:18:34;;;;;;;;;;;13.60;62.10;;;;;;2069480;28;812;-46
2021/03/12 01:20:09;;;;;;;;;;;13.60;62.10;;;;;;2074954;28;906;-45
2021/03/12 01:21:29;;;;;;;;;;;13.60;62.90;;;;;;2081038;28;723;-46
2021/03/12 01:22:51;;;;;;;;;;;13.60;62.10;;;;;;2080433;28;743;-45
2021/03/12 01:24:11;;;;;;;;;;;13.60;62.10;;;;;;2069384;28;779;-47
2021/03/12 01:25:40;;;;;;;;;;;13.60;62.10;;;;;;2076404;28;782;-46
2021/03/12 01:26:59;;;;;;;;;;;13.50;62.00;;;;;;2081056;28;732;-46
2021/03/12 01:28:19;;;;;;;;;;;13.50;62.10;;;;;;2080360;28;757;-47
2021/03/12 01:29:39;;;;;;;;;;;13.50;62.00;;;;;;2091028;28;988;-45
2021/03/12 01:31:09;;;;;;;;;;;13.50;62.00;;;;;;2095343;28;733;-46
2021/03/12 01:32:37;;;;;;;;;;;13.50;62.00;;;;;;2094019;28;935;-47
2021/03/12 01:33:56;;;;;;;;;;;13.50;62.10;;;;;;2089350;28;1062;-48
2021/03/12 01:35:25;;;;;;;;;;;13.50;62.10;;;;;;2086597;28;707;-46
2021/03/12 01:36:45;;;;;;;;;;;13.50;62.80;;;;;;2092285;28;753;-47
2021/03/12 01:38:05;;;;;;;;;;;13.50;62.00;;;;;;2094365;28;717;-48
2021/03/12 01:39:25;;;;;;;;;;;13.50;62.10;;;;;;2085583;28;721;-47
2021/03/12 01:40:47;;;;;;;;;;;13.50;62.10;;;;;;2091496;28;733;-47
2021/03/12 01:42:07;;;;;;;;;;;13.50;62.10;;;;;;2088334;28;744;-47
2021/03/12 01:43:31;;;;;;;;;;;13.50;62.10;;;;;;2095195;28;761;-47
2021/03/12 01:44:51;;;;;;;;;;;13.50;62.10;;;;;;2096543;28;756;-47
2021/03/12 01:46:12;;;;;;;;;;;13.50;62.10;;;;;;2096745;28;1742;-47
2021/03/12 01:47:31;;;;;;;;;;;13.50;62.00;;;;;;2093135;28;830;-47
2021/03/12 01:48:50;;;;;;;;;;;13.50;62.10;;;;;;2090297;28;1945;-47
2021/03/12 01:50:10;;;;;;;;;;;13.50;62.10;;;;;;2092969;28;790;-46
2021/03/12 01:51:33;;;;;;;;;;;13.50;62.10;;;;;;2094445;28;805;-48
2021/03/12 01:52:52;;;;;;;;;;;13.50;62.90;;;;;;2088678;28;745;-48
2021/03/12 01:54:11;;;;;;;;;;;13.50;62.90;;;;;;2085868;28;765;-45
2021/03/12 01:55:32;;;;;;;;;;;13.50;63.00;;;;;;2090353;28;737;-47
2021/03/12 01:56:54;;;;;;;;;;;13.50;62.20;;;;;;2094677;28;733;-46
2021/03/12 01:58:43;;;;;;;;;;;13.40;62.20;;;;;;2093229;28;1022;-45
2021/03/12 02:00:10;;;;;;;;;;;13.40;62.10;;;;;;2089081;28;753;-47
2021/03/12 02:01:35;;;;;;;;;;;13.40;62.80;;;;;;2095438;28;932;-47
2021/03/12 02:02:59;;;;;;;;;;;13.50;62.10;;;;;;2093186;28;1101;-46
2021/03/12 02:04:36;;;;;;;;;;;13.40;62.00;;;;;;2089024;28;732;-48
2021/03/12 02:06:00;;;;;;;;;;;13.40;62.10;;;;;;2078285;28;1348;-45
2021/03/12 02:07:22;;;;;;;;;;;13.40;62.10;;;;;;2083580;28;810;-46
2021/03/12 02:09:00;;;;;;;;;;;13.40;62.00;;;;;;2088350;28;1891;-46
2021/03/12 02:10:27;;;;;;;;;;;13.40;62.70;;;;;;2086790;28;746;-47
2021/03/12 02:12:13;;;;;;;;;;;13.40;62.00;;;;;;2077816;28;706;-46
2021/03/12 02:13:32;;;;;;;;;;;13.40;62.00;;;;;;2089044;28;915;-47
2021/03/12 02:15:12;;;;;;;;;;;13.40;62.10;;;;;;2085558;28;700;-46
2021/03/12 02:16:36;;;;;;;;;;;13.40;62.00;;;;;;2080842;28;1731;-47
2021/03/12 02:17:57;;;;;;;;;;;13.40;62.00;;;;;;2078181;28;767;-46
2021/03/12 02:19:20;;;;;;;;;;;13.40;62.00;;;;;;2075275;28;713;-46
2021/03/12 02:20:41;;;;;;;;;;;13.40;62.00;;;;;;2086226;28;726;-47
2021/03/12 02:22:01;;;;;;;;;;;13.40;62.10;;;;;;2085779;28;780;-46
2021/03/12 02:23:30;;;;;;;;;;;13.40;62.80;;;;;;2085639;28;771;-48
2021/03/12 02:24:53;;;;;;;;;;;13.40;62.10;;;;;;2086347;28;743;-44
2021/03/12 02:26:24;;;;;;;;;;;13.40;62.10;;;;;;2087302;28;1474;-44
2021/03/12 02:27:43;;;;;;;;;;;13.40;62.10;;;;;;2085350;28;1838;-44
2021/03/12 02:29:07;;;;;;;;;;;13.40;62.10;;;;;;2082052;28;1901;-46
2021/03/12 02:30:30;;;;;;;;;;;13.30;62.70;;;;;;2072442;28;893;-45
2021/03/12 02:31:51;;;;;;;;;;;13.30;62.00;;;;;;2091536;28;776;-47
2021/03/12 02:33:10;;;;;;;;;;;13.30;61.90;;;;;;2093901;28;768;-47
2021/03/12 02:34:35;;;;;;;;;;;13.30;62.00;;;;;;2085519;28;1646;-46
2021/03/12 02:36:02;;;;;;;;;;;13.30;62.10;;;;;;2079915;28;1437;-48
2021/03/12 02:37:37;;;;;;;;;;;13.30;62.10;;;;;;2080251;28;881;-47
2021/03/12 02:38:57;;;;;;;;;;;13.30;62.10;;;;;;2092905;28;786;-46
2021/03/12 02:40:17;;;;;;;;;;;13.30;62.90;;;;;;2093542;28;735;-46
2021/03/12 02:41:43;;;;;;;;;;;13.30;62.90;;;;;;2094594;28;751;-46
2021/03/12 02:43:07;;;;;;;;;;;13.30;62.10;;;;;;2087224;28;966;-48
2021/03/12 02:44:26;;;;;;;;;;;13.30;62.80;;;;;;2082963;28;1698;-46
2021/03/12 02:45:50;;;;;;;;;;;13.30;62.10;;;;;;2082690;28;1510;-47
2021/03/12 02:47:18;;;;;;;;;;;13.30;62.10;;;;;;2079234;28;854;-46
2021/03/12 02:48:38;;;;;;;;;;;13.30;62.10;;;;;;2086000;28;1541;-46
2021/03/12 02:49:59;;;;;;;;;;;13.30;62.10;;;;;;2083664;28;1669;-47
2021/03/12 02:51:20;;;;;;;;;;;13.30;62.10;;;;;;2084374;28;1035;-46
2021/03/12 02:52:40;;;;;;;;;;;13.30;62.10;;;;;;2077103;28;1275;-46
2021/03/12 02:54:01;;;;;;;;;;;13.20;62.00;;;;;;2088781;28;1135;-46
2021/03/12 02:55:27;;;;;;;;;;;13.20;62.00;;;;;;2082829;28;1070;-46
2021/03/12 02:56:50;;;;;;;;;;;13.30;62.10;;;;;;2080842;28;1321;-50
2021/03/12 02:58:10;;;;;;;;;;;13.20;62.00;;;;;;2071087;28;1129;-49
2021/03/12 02:59:30;;;;;;;;;;;13.20;62.00;;;;;;2083465;28;1273;-48
2021/03/12 03:01:09;;;;;;;;;;;13.20;62.10;;;;;;2095175;28;1282;-51
2021/03/12 03:02:42;;;;;;;;;;;13.20;62.20;;;;;;2089200;28;1702;-50
2021/03/12 03:04:09;;;;;;;;;;;13.20;62.10;;;;;;2084985;28;1177;-49
2021/03/12 03:05:48;;;;;;;;;;;13.20;62.10;;;;;;2092760;28;1432;-49
2021/03/12 03:07:08;;;;;;;;;;;13.20;62.10;;;;;;2089163;28;1004;-53
2021/03/12 03:08:27;;;;;;;;;;;13.20;62.00;;;;;;2083092;28;1024;-49
2021/03/12 03:09:46;;;;;;;;;;;13.20;61.90;;;;;;2082326;28;1255;-48
2021/03/12 03:11:06;;;;;;;;;;;13.20;62.10;;;;;;2090555;28;909;-48
2021/03/12 03:12:26;;;;;;;;;;;13.30;62.00;;;;;;2098397;28;1058;-47
2021/03/12 03:13:47;;;;;;;;;;;13.30;62.00;;;;;;2088019;28;1645;-51
2021/03/12 03:15:07;;;;;;;;;;;13.20;61.80;;;;;;2082416;28;908;-47
2021/03/12 03:16:27;;;;;;;;;;;13.20;61.80;;;;;;2091450;28;1507;-50
2021/03/12 03:17:46;;;;;;;;;;;13.20;62.60;;;;;;2097573;28;994;-48
2021/03/12 03:19:07;;;;;;;;;;;13.20;61.80;;;;;;2093550;28;933;-50
2021/03/12 03:20:26;;;;;;;;;;;13.20;61.80;;;;;;2094629;28;1185;-51
2021/03/12 03:21:48;;;;;;;;;;;13.20;61.70;;;;;;2086887;28;1043;-51
2021/03/12 03:23:07;;;;;;;;;;;13.20;61.70;;;;;;2086298;28;1217;-50
2021/03/12 03:24:26;;;;;;;;;;;13.20;61.80;;;;;;2086212;28;1004;-48
2021/03/12 03:25:46;;;;;;;;;;;13.20;61.80;;;;;;2090714;28;1435;-52
2021/03/12 03:27:14;;;;;;;;;;;13.20;61.80;;;;;;2095454;28;1266;-49
2021/03/12 03:28:34;;;;;;;;;;;13.20;61.90;;;;;;2091741;28;1139;-51
2021/03/12 03:29:53;;;;;;;;;;;13.20;61.90;;;;;;2092755;28;1105;-47
2021/03/12 03:31:13;;;;;;;;;;;13.20;62.00;;;;;;2094004;28;1292;-49
2021/03/12 03:32:32;;;;;;;;;;;13.20;62.00;;;;;;2097947;28;1103;-50
2021/03/12 03:33:51;;;;;;;;;;;13.20;62.00;;;;;;2088668;28;1135;-47
2021/03/12 03:35:11;;;;;;;;;;;13.20;62.00;;;;;;2080616;28;2185;-50
2021/03/12 03:36:30;;;;;;;;;;;13.20;62.10;;;;;;2086763;28;1396;-46
2021/03/12 03:37:50;;;;;;;;;;;13.20;62.70;;;;;;2092012;28;1121;-47
2021/03/12 03:39:09;;;;;;;;;;;13.20;62.00;;;;;;2094175;28;1301;-50
2021/03/12 03:40:28;;;;;;;;;;;13.20;62.00;;;;;;2093344;28;1149;-50
2021/03/12 03:41:50;;;;;;;;;;;13.20;62.10;;;;;;2082484;28;1142;-47
2021/03/12 03:43:10;;;;;;;;;;;13.20;62.10;;;;;;2082504;28;1321;-53
2021/03/12 03:44:30;;;;;;;;;;;13.20;62.20;;;;;;2085429;28;1366;-50
2021/03/12 03:45:51;;;;;;;;;;;13.20;62.10;;;;;;2082678;28;1479;-48
2021/03/12 03:47:21;;;;;;;;;;;13.10;62.10;;;;;;2085476;28;1199;-50
2021/03/12 03:48:41;;;;;;;;;;;13.10;62.10;;;;;;2084629;28;1151;-49
2021/03/12 03:50:03;;;;;;;;;;;13.10;62.10;;;;;;2089031;28;2151;-52
2021/03/12 03:51:23;;;;;;;;;;;13.10;62.90;;;;;;2093210;28;1037;-48
2021/03/12 03:52:43;;;;;;;;;;;13.10;62.10;;;;;;2083196;28;1296;-52
2021/03/12 03:54:05;;;;;;;;;;;13.10;62.10;;;;;;2083651;28;1248;-49
2021/03/12 03:55:24;;;;;;;;;;;13.10;62.10;;;;;;2078557;28;1266;-50
2021/03/12 03:56:45;;;;;;;;;;;13.10;62.10;;;;;;2085717;28;1442;-54
2021/03/12 03:58:04;;;;;;;;;;;13.10;62.10;;;;;;2075554;28;1136;-53
2021/03/12 03:59:24;;;;;;;;;;;13.10;62.20;;;;;;2077829;28;1149;-48
2021/03/12 04:00:43;;;;;;;;;;;13.10;62.20;;;;;;2081187;28;1307;-49
2021/03/12 04:02:04;;;;;;;;;;;13.10;62.20;;;;;;2082872;28;1323;-50
2021/03/12 04:03:23;;;;;;;;;;;13.10;62.20;;;;;;2082692;28;1066;-54
2021/03/12 04:04:49;;;;;;;;;;;13.10;62.30;;;;;;2082946;28;1161;-50
2021/03/12 04:06:08;;;;;;;;;;;13.10;62.30;;;;;;2091836;28;1514;-50
2021/03/12 04:07:27;;;;;;;;;;;13.10;62.20;;;;;;2094150;28;1216;-49
2021/03/12 04:08:51;;;;;;;;;;;13.10;62.30;;;;;;2097031;28;1993;-50
2021/03/12 04:10:12;;;;;;;;;;;13.10;62.40;;;;;;2086460;28;1215;-52
2021/03/12 04:11:32;;;;;;;;;;;13.10;62.40;;;;;;2084287;28;1031;-51
2021/03/12 04:12:51;;;;;;;;;;;13.10;62.30;;;;;;2083728;28;1294;-50
2021/03/12 04:14:12;;;;;;;;;;;13.10;62.30;;;;;;2074444;28;1170;-48
2021/03/12 04:15:33;;;;;;;;;;;13.10;62.30;;;;;;2074882;28;2081;-49
2021/03/12 04:16:54;;;;;;;;;;;13.10;62.30;;;;;;2083876;28;1424;-54
2021/03/12 04:18:13;;;;;;;;;;;13.00;62.20;;;;;;2081013;28;1054;-47
2021/03/12 04:19:34;;;;;;;;;;;13.00;62.20;;;;;;2077176;28;1440;-51
2021/03/12 04:20:54;;;;;;;;;;;13.00;62.30;;;;;;2080782;28;1152;-48
2021/03/12 04:22:13;;;;;;;;;;;13.10;62.30;;;;;;2080225;28;1171;-50
2021/03/12 04:23:32;;;;;;;;;;;13.00;62.20;;;;;;2084424;28;1235;-50
2021/03/12 04:24:54;;;;;;;;;;;13.00;62.30;;;;;;2086508;28;1347;-50
2021/03/12 04:26:16;;;;;;;;;;;13.00;62.30;;;;;;2090696;28;1444;-48
2021/03/12 04:27:36;;;;;;;;;;;13.00;62.60;;;;;;2081906;28;1277;-50
2021/03/12 04:28:55;;;;;;;;;;;13.10;62.10;;;;;;2082687;28;1894;-48
2021/03/12 04:30:17;;;;;;;;;;;13.10;62.10;;;;;;2086206;28;1115;-53
2021/03/12 04:31:36;;;;;;;;;;;13.10;62.40;;;;;;2083637;28;1163;-50
2021/03/12 04:32:58;;;;;;;;;;;13.10;62.20;;;;;;2086281;28;1460;-54
2021/03/12 04:34:18;;;;;;;;;;;13.10;62.60;;;;;;2080788;28;1039;-47
2021/03/12 04:35:38;;;;;;;;;;;13.00;62.70;;;;;;2086168;28;1143;-48
2021/03/12 04:36:57;;;;;;;;;;;13.10;62.50;;;;;;2093202;28;1407;-50
2021/03/12 04:38:17;;;;;;;;;;;13.10;62.60;;;;;;2085725;28;1155;-53
2021/03/12 04:39:37;;;;;;;;;;;13.10;62.80;;;;;;2077933;28;1177;-57
2021/03/12 04:40:56;;;;;;;;;;;13.00;62.60;;;;;;2085706;28;1454;-55
2021/03/12 04:42:19;;;;;;;;;;;13.00;62.50;;;;;;2078190;28;1168;-50
2021/03/12 04:43:38;;;;;;;;;;;13.00;62.50;;;;;;2081468;28;1192;-51
2021/03/12 04:44:57;;;;;;;;;;;13.00;62.40;;;;;;2093589;28;1353;-51
2021/03/12 04:46:17;;;;;;;;;;;13.00;62.50;;;;;;2097351;28;1364;-50
2021/03/12 04:47:41;;;;;;;;;;;13.00;63.20;;;;;;2088408;28;1161;-52
2021/03/12 04:49:02;;;;;;;;;;;13.00;62.50;;;;;;2083230;28;1979;-50
2021/03/12 04:50:21;;;;;;;;;;;13.00;62.50;;;;;;2081511;28;1038;-47
2021/03/12 04:51:47;;;;;;;;;;;13.00;62.50;;;;;;2085792;28;1412;-50
2021/03/12 04:53:08;;;;;;;;;;;13.00;62.60;;;;;;2083383;28;1340;-47
2021/03/12 04:54:27;;;;;;;;;;;13.00;62.60;;;;;;2083124;28;1531;-46
2021/03/12 04:55:46;;;;;;;;;;;13.00;62.70;;;;;;2089804;28;997;-49
2021/03/12 04:57:14;;;;;;;;;;;13.00;62.70;;;;;;2081544;28;1392;-51
2021/03/12 04:58:33;;;;;;;;;;;12.90;62.60;;;;;;2095120;28;1372;-49
2021/03/12 04:59:57;;;;;;;;;;;13.00;63.50;;;;;;2076139;28;1148;-48
2021/03/12 05:01:19;;;;;;;;;;;12.90;62.70;;;;;;2081044;28;1294;-54
2021/03/12 05:02:38;;;;;;;;;;;13.00;62.70;;;;;;2082378;28;1336;-47
2021/03/12 05:03:59;;;;;;;;;;;12.90;62.60;;;;;;2077538;28;1376;-48
2021/03/12 05:05:18;;;;;;;;;;;12.90;62.60;;;;;;2088795;28;982;-51
2021/03/12 05:06:37;;;;;;;;;;;12.90;62.60;;;;;;2078726;28;1471;-50
2021/03/12 05:08:09;;;;;;;;;;;12.90;62.70;;;;;;2081529;28;1196;-50
2021/03/12 05:09:34;;;;;;;;;;;12.90;62.70;;;;;;2083786;28;1910;-49
2021/03/12 05:11:01;;;;;;;;;;;12.90;62.70;;;;;;2084160;28;1197;-56
2021/03/12 05:12:26;;;;;;;;;;;12.90;62.70;;;;;;2084799;28;1108;-50
2021/03/12 05:13:46;;;;;;;;;;;12.90;62.80;;;;;;2090609;28;1225;-50
2021/03/12 05:15:06;;;;;;;;;;;12.90;62.70;;;;;;2091032;28;1203;-49
2021/03/12 05:16:25;;;;;;;;;;;12.90;62.80;;;;;;2084345;28;3168;-51
2021/03/12 05:17:45;;;;;;;;;;;12.90;62.80;;;;;;2080642;28;2750;-52
2021/03/12 05:19:06;;;;;;;;;;;12.90;62.80;;;;;;2085087;28;2508;-53
2021/03/12 05:20:25;;;;;;;;;;;12.90;62.70;;;;;;2079797;28;1232;-54
2021/03/12 05:21:44;;;;;;;;;;;12.90;62.70;;;;;;2083962;28;1418;-53
2021/03/12 05:23:09;;;;;;;;;;;12.90;62.70;;;;;;2080244;28;1243;-47
2021/03/12 05:24:28;;;;;;;;;;;12.90;62.70;;;;;;2085784;28;1151;-51
2021/03/12 05:25:48;;;;;;;;;;;12.90;62.70;;;;;;2087151;28;1538;-52
2021/03/12 05:27:07;;;;;;;;;;;12.90;62.70;;;;;;2087858;28;1260;-49
2021/03/12 05:28:34;;;;;;;;;;;12.90;62.70;;;;;;2088217;28;1307;-49
2021/03/12 05:29:53;;;;;;;;;;;12.90;62.70;;;;;;2083101;28;1294;-49
2021/03/12 05:31:12;;;;;;;;;;;12.90;62.70;;;;;;2084614;28;1338;-50
2021/03/12 05:32:31;;;;;;;;;;;12.80;63.30;;;;;;2089764;28;1143;-48
2021/03/12 05:33:52;;;;;;;;;;;12.90;62.80;;;;;;2080924;28;1175;-52
2021/03/12 05:35:12;;;;;;;;;;;12.90;62.70;;;;;;2078310;28;1174;-50
2021/03/12 05:36:32;;;;;;;;;;;12.90;62.50;;;;;;2085340;28;1557;-52
2021/03/12 05:37:51;;;;;;;;;;;12.90;62.40;;;;;;2087399;28;1095;-51
2021/03/12 05:39:12;;;;;;;;;;;12.90;63.00;;;;;;2084211;28;1196;-50
2021/03/12 05:40:31;;;;;;;;;;;12.90;62.20;;;;;;2088432;28;1317;-54
2021/03/12 05:41:50;;;;;;;;;;;12.90;62.50;;;;;;2086502;28;1270;-48
2021/03/12 05:43:13;;;;;;;;;;;12.90;62.30;;;;;;2078562;28;1227;-50
2021/03/12 05:44:33;;;;;;;;;;;12.90;62.50;;;;;;2083660;28;1276;-49
2021/03/12 05:45:55;;;;;;;;;;;12.90;62.40;;;;;;2080893;28;1539;-50
2021/03/12 05:47:15;;;;;;;;;;;12.90;63.10;;;;;;2085535;28;1384;-49
2021/03/12 05:48:34;;;;;;;;;;;12.80;63.00;;;;;;2089309;28;1177;-48
2021/03/12 05:49:54;;;;;;;;;;;12.90;62.50;;;;;;2074434;28;2670;-49
2021/03/12 05:51:14;;;;;;;;;;;12.80;62.40;;;;;;2071708;28;1259;-51
2021/03/12 05:52:33;;;;;;;;;;;12.80;62.40;;;;;;2073784;28;1284;-48
2021/03/12 05:53:52;;;;;;;;;;;12.80;62.50;;;;;;2081241;28;1363;-51
2021/03/12 05:55:11;;;;;;;;;;;12.80;62.50;;;;;;2089951;28;2844;-49
2021/03/12 05:56:31;;;;;;;;;;;12.80;62.60;;;;;;2079791;28;1544;-48
2021/03/12 05:57:54;;;;;;;;;;;12.80;62.70;;;;;;2082294;28;1473;-54
2021/03/12 05:59:13;;;;;;;;;;;12.80;63.50;;;;;;2087272;28;1158;-51
2021/03/12 06:00:38;;;;;;;;;;;12.80;62.10;;;;;;2087015;28;1047;-52
2021/03/12 06:02:00;;;;;;;;;;;12.80;62.80;;;;;;2091924;28;1309;-51
2021/03/12 06:03:20;;;;;;;;;;;12.80;62.80;;;;;;2090307;28;1276;-48
2021/03/12 06:04:45;;;;;;;;;;;12.80;62.80;;;;;;2081896;28;1052;-49
2021/03/12 06:06:06;;;;;;;;;;;12.80;62.80;;;;;;2077637;28;1471;-47
2021/03/12 06:07:28;;;;;;;;;;;12.80;62.80;;;;;;2086302;28;2656;-50
2021/03/12 06:08:47;;;;;;;;;;;12.80;62.90;;;;;;2079364;28;1137;-49
2021/03/12 06:10:07;;;;;;;;;;;12.80;62.90;;;;;;2084251;28;1321;-49
2021/03/12 06:11:26;;;;;;;;;;;12.80;62.80;;;;;;2091023;28;1341;-53
2021/03/12 06:12:50;;;;;;;;;;;12.80;62.80;;;;;;2090421;28;1283;-48
2021/03/12 06:14:09;;;;;;;;;;;12.80;62.70;;;;;;2081171;28;1304;-50
2021/03/12 06:15:36;;;;;;;;;;;12.80;62.60;;;;;;2087109;28;842;-48
2021/03/12 06:16:58;;;;;;;;;;;12.80;63.40;;;;;;2092867;28;970;-51
2021/03/12 06:18:27;;;;;;;;;;;12.80;62.70;;;;;;2089771;28;1401;-48
2021/03/12 06:19:57;;;;;;;;;;;12.90;62.50;;;;;;2086911;28;1061;-51
2021/03/12 06:21:28;;;;;;;;;;;12.90;62.20;;;;;;2088837;28;1316;-48
2021/03/12 06:22:52;;;;;;;;;;;13.00;62.10;;;;;;2088837;28;1295;-49
2021/03/12 06:24:20;;;;;;;;;;;13.00;61.70;;;;;;2078287;28;972;-53
2021/03/12 06:25:42;;;;;;;;;;;13.10;62.20;;;;;;2087973;28;1291;-50
2021/03/12 06:27:06;;;;;;;;;;;13.10;61.20;;;;;;2083530;28;1176;-51
2021/03/12 06:28:30;;;;;;;;;;;13.20;61.10;;;;;;2085991;28;1116;-51
2021/03/12 06:30:03;;;;;;;;;;;13.20;60.70;;;;;;2090123;28;1255;-48
2021/03/12 06:31:32;;;;;;;;;;;13.30;60.50;;;;;;2094530;28;1189;-53
2021/03/12 06:33:23;;;;;;;;;;;13.40;60.30;;;;;;2091571;28;1242;-49
2021/03/12 06:34:58;;;;;;;;;;;13.40;59.80;;;;;;2085254;28;1178;-49
2021/03/12 06:36:43;;;;;;;;;;;13.50;59.60;;;;;;2090447;28;2848;-51
2021/03/12 06:38:09;;;;;;;;;;;13.60;59.80;;;;;;2086132;28;1110;-50
2021/03/12 06:39:54;;;;;;;;;;;13.60;59.20;;;;;;2095791;28;1413;-47
2021/03/12 06:41:42;;;;;;;;;;;13.70;59.40;;;;;;2080352;28;1411;-49
2021/03/12 06:43:08;;;;;;;;;;;13.80;59.20;;;;;;2090687;28;3371;-48
2021/03/12 06:44:31;;;;;;;;;;;13.80;58.80;;;;;;2086699;28;1145;-49
2021/03/12 06:45:56;;;;;;;;;;;13.80;58.70;;;;;;2089876;28;1420;-51
2021/03/12 06:47:22;;;;;;;;;;;13.90;58.60;;;;;;2082427;28;1311;-48
2021/03/12 06:48:46;;;;;;;;;;;13.90;58.80;;;;;;2089060;28;1283;-51
2021/03/12 06:50:21;;;;;;;;;;;14.00;58.20;;;;;;2073128;28;1761;-51
2021/03/12 06:52:02;;;;;;;;;;;14.00;57.90;;;;;;2086052;28;1464;-49
2021/03/12 06:53:30;;;;;;;;;;;14.10;57.70;;;;;;2087927;28;1179;-49
2021/03/12 06:54:54;;;;;;;;;;;14.10;57.60;;;;;;2090673;28;1189;-51
2021/03/12 06:56:30;;;;;;;;;;;14.10;57.40;;;;;;2080214;28;1482;-50
2021/03/12 06:58:08;;;;;;;;;;;14.10;57.40;;;;;;2090557;28;1204;-49
2021/03/12 06:59:32;;;;;;;;;;;14.10;57.90;;;;;;2078512;28;1244;-51
2021/03/12 07:01:18;;;;;;;;;;;14.10;57.40;;;;;;2088966;28;1116;-51
2021/03/12 07:02:37;;;;;;;;;;;14.10;57.40;;;;;;2088405;28;1244;-52
2021/03/12 07:04:13;;;;;;;;;;;14.10;57.50;;;;;;2080028;28;1201;-48
2021/03/12 07:06:05;;;;;;;;;;;14.10;57.50;;;;;;2088275;28;1415;-48
2021/03/12 07:07:33;;;;;;;;;;;14.20;57.50;;;;;;2088429;28;1698;-49
2021/03/12 07:08:55;;;;;;;;;;;14.20;58.00;;;;;;2087145;28;1906;-50
2021/03/12 07:10:33;;;;;;;;;;;14.30;57.50;;;;;;2087547;28;1106;-51
2021/03/12 07:11:57;;;;;;;;;;;14.30;57.30;;;;;;2087886;28;1277;-50
2021/03/12 07:13:41;;;;;;;;;;;14.30;57.20;;;;;;2089801;28;1054;-47
2021/03/12 07:15:11;;;;;;;;;;;14.40;57.70;;;;;;2087520;28;1134;-50
2021/03/12 07:16:38;;;;;;;;;;;14.50;57.00;;;;;;2079215;28;1426;-49
2021/03/12 07:18:00;;;;;;;;;;;14.50;56.80;;;;;;2085795;28;1392;-50
2021/03/12 07:19:22;;;;;;;;;;;14.60;56.70;;;;;;2088228;28;1246;-53
2021/03/12 07:20:41;;;;;;;;;;;14.60;56.50;;;;;;2083505;28;1383;-48
2021/03/12 07:22:05;;;;;;;;;;;14.70;56.40;;;;;;2086707;28;1416;-47
2021/03/12 07:23:29;;;;;;;;;;;14.70;56.30;;;;;;2086119;28;1142;-51
2021/03/12 07:24:50;;;;;;;;;;;14.80;56.20;;;;;;2079359;28;1138;-48
2021/03/12 07:26:10;;;;;;;;;;;14.80;56.00;;;;;;2086659;28;1514;-52
2021/03/12 07:27:31;;;;;;;;;;;14.90;55.90;;;;;;2085372;28;1224;-51
2021/03/12 07:29:04;;;;;;;;;;;14.90;55.80;;;;;;2085844;28;1961;-48
2021/03/12 07:30:43;;;;;;;;;;;15.00;55.70;;;;;;2089381;28;1318;-49
2021/03/12 07:32:09;;;;;;;;;;;15.00;55.50;;;;;;2093568;28;1203;-52
2021/03/12 07:33:29;;;;;;;;;;;15.10;55.50;;;;;;2086977;28;1160;-52
2021/03/12 07:34:49;;;;;;;;;;;15.10;55.90;;;;;;2084135;28;1304;-50
2021/03/12 07:36:25;;;;;;;;;;;15.20;55.30;;;;;;2080950;28;1436;-53
2021/03/12 07:37:56;;;;;;;;;;;15.30;55.20;;;;;;2072625;28;1223;-48
2021/03/12 07:39:22;;;;;;;;;;;15.30;55.10;;;;;;2085520;28;1112;-55
2021/03/12 07:40:41;;;;;;;;;;;15.40;55.00;;;;;;2078399;28;1135;-50
2021/03/12 07:42:39;;;;;;;;;;;15.40;54.80;;;;;;2071950;28;1357;-51
2021/03/12 07:44:28;;;;;;;;;;;15.50;54.70;;;;;;2055900;28;2466;-48
2021/03/12 07:45:59;;;;;;;;;;;15.60;54.70;;;;;;2066142;28;1362;-48
2021/03/12 07:47:45;;;;;;;;;;;15.60;55.10;;;;;;2062639;28;1251;-54
2021/03/12 07:49:25;;;;;;;;;;;15.60;54.60;;;;;;2077520;28;3203;-49
2021/03/12 07:50:44;;;;;;;;;;;15.60;55.10;;;;;;2084375;28;1195;-50
2021/03/12 07:52:10;;;;;;;;;;;15.60;54.60;;;;;;2086012;28;1426;-50
2021/03/12 07:53:50;;;;;;;;;;;15.50;54.50;;;;;;2089138;28;1128;-50
2021/03/12 07:55:33;;;;;;;;;;;15.60;54.70;;;;;;2090208;28;1849;-48
2021/03/12 07:56:53;;;;;;;;;;;15.60;54.80;;;;;;2086391;28;2327;-51
2021/03/12 07:58:50;;;;;;;;;;;15.60;54.80;;;;;;2086497;28;1686;-51
2021/03/12 08:00:12;;;;;;;;;;;15.60;54.90;;;;;;2089066;28;1025;-48
2021/03/12 08:01:56;;;;;;;;;;;15.60;54.80;;;;;;2087027;28;1232;-52
2021/03/12 08:03:42;;;;;;;;;;;15.60;54.90;;;;;;2084321;28;1416;-49
2021/03/12 08:05:33;;;;;;;;;;;15.60;54.90;;;;;;2089984;28;1349;-49
2021/03/12 08:06:53;;;;;;;;;;;15.60;55.00;;;;;;2089611;28;1243;-50
2021/03/12 08:08:34;;;;;;;;;;;15.60;55.00;;;;;;2088050;28;1199;-51
2021/03/12 08:10:15;;;;;;;;;;;15.60;55.10;;;;;;2093067;28;1413;-48
2021/03/12 08:11:52;;;;;;;;;;;15.60;55.20;;;;;;2089884;28;1139;-51
2021/03/12 08:13:37;;;;;;;;;;;15.50;55.20;;;;;;2090520;28;1415;-48
2021/03/12 08:15:14;;;;;;;;;;;15.50;55.30;;;;;;2081962;28;1167;-49
2021/03/12 08:16:34;;;;;;;;;;;15.50;55.40;;;;;;2085163;28;1428;-50
2021/03/12 08:17:55;;;;;;;;;;;15.50;55.50;;;;;;2090687;28;1311;-49
2021/03/12 08:19:28;;;;;;;;;;;15.50;55.50;;;;;;2088331;28;1410;-48